createdAt,value
2018-07-27T00:00:42.770Z,77.70
2018-07-27T00:03:11.429Z,80.40
2018-07-27T00:05:40.034Z,78.70
2018-07-27T00:08:08.642Z,78.10
2018-07-27T00:13:05.600Z,79.60
2018-07-27T00:15:34.252Z,78.80
2018-07-27T00:18:02.988Z,78.00
2018-07-27T00:20:31.709Z,79.40
2018-07-27T00:23:00.438Z,80.00
2018-07-27T00:25:29.175Z,79.90
2018-07-27T00:27:57.822Z,79.20
2018-07-27T00:30:26.457Z,79.90
2018-07-27T00:32:55.083Z,79.80
2018-07-27T00:35:23.807Z,80.70
2018-07-27T00:37:52.475Z,79.00
2018-07-27T00:40:21.202Z,78.30
2018-07-27T00:42:49.821Z,79.70
2018-07-27T00:45:18.542Z,79.00
2018-07-27T00:47:47.218Z,80.60
2018-07-27T00:50:15.869Z,80.10
2018-07-27T00:52:44.477Z,79.00
2018-07-27T00:55:13.123Z,79.10
2018-07-27T00:57:41.735Z,81.80
2018-07-27T01:00:10.433Z,79.60
2018-07-27T01:02:39.093Z,79.50
2018-07-27T01:07:35.977Z,80.40
2018-07-27T01:10:04.961Z,79.90
2018-07-27T01:12:33.697Z,79.30
2018-07-27T01:15:02.419Z,79.40
2018-07-27T01:17:31.176Z,79.20
2018-07-27T01:19:59.924Z,78.60
2018-07-27T01:22:28.540Z,79.40
2018-07-27T01:24:57.201Z,79.40
2018-07-27T01:27:25.828Z,80.60
2018-07-27T01:29:54.446Z,78.30
2018-07-27T01:32:23.092Z,80.40
2018-07-27T01:34:51.759Z,80.50
2018-07-27T01:37:20.421Z,82.00
2018-07-27T01:39:49.177Z,81.00
2018-07-27T01:42:17.852Z,83.90
2018-07-27T01:44:46.502Z,81.80
2018-07-27T01:47:15.123Z,81.00
2018-07-27T01:49:43.757Z,81.40
2018-07-27T01:52:12.361Z,81.20
2018-07-27T01:57:09.201Z,83.60
2018-07-27T01:59:37.821Z,82.70
2018-07-27T02:02:06.522Z,81.30
2018-07-27T02:04:35.209Z,79.40
2018-07-27T02:07:03.949Z,83.50
2018-07-27T02:09:32.711Z,82.30
2018-07-27T02:12:01.396Z,82.00
2018-07-27T02:14:30.050Z,82.30
2018-07-27T02:16:58.733Z,82.50
2018-07-27T02:19:27.392Z,83.50
2018-07-27T02:21:56.025Z,83.10
2018-07-27T02:24:24.637Z,81.20
2018-07-27T02:26:53.254Z,79.80
2018-07-27T02:29:21.881Z,80.50
2018-07-27T02:31:50.490Z,81.90
2018-07-27T02:34:19.102Z,80.70
2018-07-27T02:36:47.781Z,81.20
2018-07-27T02:39:16.471Z,81.00
2018-07-27T02:41:45.115Z,81.00
2018-07-27T02:44:13.745Z,80.70
2018-07-27T02:46:42.337Z,81.00
2018-07-27T02:49:10.970Z,80.80
2018-07-27T02:51:39.570Z,81.20
2018-07-27T02:54:08.198Z,80.90
2018-07-27T02:59:05.161Z,81.70
2018-07-27T03:01:33.897Z,79.80
2018-07-27T03:04:02.677Z,81.20
2018-07-27T03:08:59.642Z,82.20
2018-07-27T03:11:28.294Z,80.70
2018-07-27T03:13:56.926Z,80.00
2018-07-27T03:16:25.605Z,80.30
2018-07-27T03:18:54.278Z,81.10
2018-07-27T03:21:22.897Z,81.00
2018-07-27T03:23:51.497Z,81.20
2018-07-27T03:26:20.179Z,81.90
2018-07-27T03:28:48.890Z,81.90
2018-07-27T03:31:17.549Z,82.00
2018-07-27T03:33:46.221Z,82.80
2018-07-27T03:36:14.861Z,81.30
2018-07-27T03:38:43.490Z,82.20
2018-07-27T03:41:13.106Z,83.00
2018-07-27T03:43:41.905Z,81.90
2018-07-27T03:46:10.568Z,83.90
2018-07-27T03:48:39.192Z,82.50
2018-07-27T03:51:07.804Z,82.40
2018-07-27T03:53:36.462Z,82.40
2018-07-27T03:56:05.238Z,82.00
2018-07-27T03:58:33.930Z,83.10
2018-07-27T04:01:02.726Z,82.20
2018-07-27T04:03:31.476Z,81.90
2018-07-27T04:06:00.161Z,81.90
2018-07-27T04:08:29.227Z,83.00
2018-07-27T04:10:57.886Z,83.50
2018-07-27T04:13:26.493Z,85.00
2018-07-27T04:15:55.108Z,82.60
2018-07-27T04:18:23.719Z,84.60
2018-07-27T04:20:52.357Z,83.20
2018-07-27T04:25:49.235Z,86.20
2018-07-27T04:28:17.917Z,84.20
2018-07-27T04:30:46.653Z,82.90
2018-07-27T04:33:15.322Z,84.10
2018-07-27T04:35:43.991Z,84.20
2018-07-27T04:38:12.555Z,83.20
2018-07-27T04:40:41.202Z,82.80
2018-07-27T04:43:09.838Z,83.70
2018-07-27T04:45:38.477Z,84.10
2018-07-27T04:48:07.080Z,83.00
2018-07-27T04:50:35.734Z,84.90
2018-07-27T04:53:04.457Z,84.60
2018-07-27T04:55:33.069Z,86.10
2018-07-27T04:58:01.794Z,85.20
2018-07-27T05:00:30.484Z,86.30
2018-07-27T05:02:59.125Z,84.90
2018-07-27T05:05:27.750Z,86.60
2018-07-27T05:07:56.381Z,86.40
2018-07-27T05:10:30.331Z,86.50
2018-07-27T05:12:59.014Z,86.90
2018-07-27T05:15:27.619Z,85.80
2018-07-27T05:17:56.203Z,86.30
2018-07-27T05:20:24.849Z,86.60
2018-07-27T05:22:53.466Z,86.40
2018-07-27T05:25:22.081Z,87.40
2018-07-27T05:27:50.693Z,86.80
2018-07-27T05:30:19.321Z,86.70
2018-07-27T05:32:47.949Z,88.70
2018-07-27T05:35:16.553Z,86.90
2018-07-27T05:37:45.250Z,86.90
2018-07-27T05:40:13.832Z,88.50
2018-07-27T05:42:42.477Z,87.90
2018-07-27T05:45:11.054Z,87.90
2018-07-27T05:47:39.686Z,88.00
2018-07-27T05:50:08.389Z,87.10
2018-07-27T05:52:37.036Z,88.10
2018-07-27T05:55:05.709Z,87.50
2018-07-27T05:57:34.689Z,88.20
2018-07-27T06:00:03.462Z,89.80
2018-07-27T06:02:32.194Z,88.30
2018-07-27T06:05:00.817Z,88.30
2018-07-27T06:07:29.445Z,88.70
2018-07-27T06:09:58.076Z,87.70
2018-07-27T06:12:26.725Z,87.70
2018-07-27T06:14:55.350Z,87.50
2018-07-27T06:17:23.996Z,88.30
2018-07-27T06:19:52.594Z,88.90
2018-07-27T06:22:21.284Z,90.00
2018-07-27T06:24:51.086Z,87.90
2018-07-27T06:27:20.119Z,90.00
2018-07-27T06:29:49.251Z,88.40
2018-07-27T06:32:18.429Z,89.20
2018-07-27T06:34:47.169Z,89.30
2018-07-27T06:37:15.951Z,87.30
2018-07-27T06:39:45.654Z,87.60
2018-07-27T06:42:14.986Z,87.50
2018-07-27T06:44:43.647Z,89.00
2018-07-27T06:47:12.273Z,88.10
2018-07-27T06:49:40.968Z,86.90
2018-07-27T06:52:09.710Z,86.50
2018-07-27T06:54:38.380Z,88.50
2018-07-27T06:57:07.029Z,88.00
2018-07-27T07:02:04.135Z,86.40
2018-07-27T07:04:32.733Z,85.00
2018-07-27T07:07:01.350Z,87.10
2018-07-27T07:09:29.954Z,85.70
2018-07-27T07:11:58.574Z,85.10
2018-07-27T07:14:27.256Z,87.40
2018-07-27T07:16:56.025Z,86.60
2018-07-27T07:19:24.744Z,86.40
2018-07-27T07:21:53.468Z,85.10
2018-07-27T07:24:22.169Z,83.70
2018-07-27T07:26:50.762Z,84.50
2018-07-27T07:29:19.410Z,88.70
2018-07-27T07:31:47.993Z,84.00
2018-07-27T07:34:16.597Z,84.00
2018-07-27T07:36:45.247Z,82.30
2018-07-27T07:39:13.961Z,85.10
2018-07-27T07:41:42.918Z,84.70
2018-07-27T07:44:11.629Z,84.20
2018-07-27T07:46:40.758Z,83.00
2018-07-27T07:49:09.377Z,82.70
2018-07-27T07:51:38.556Z,83.00
2018-07-27T07:54:07.245Z,82.10
2018-07-27T07:56:35.885Z,82.80
2018-07-27T07:59:04.576Z,82.30
2018-07-27T08:01:33.485Z,83.60
2018-07-27T08:04:02.091Z,80.80
2018-07-27T08:06:30.817Z,82.80
2018-07-27T08:08:59.449Z,84.20
2018-07-27T08:11:28.082Z,85.10
2018-07-27T08:13:56.694Z,85.20
2018-07-27T08:16:25.393Z,82.70
2018-07-27T08:18:54.190Z,81.40
2018-07-27T08:21:24.607Z,82.80
2018-07-27T08:23:53.543Z,81.10
2018-07-27T08:26:39.953Z,79.20
2018-07-27T08:29:10.309Z,78.60
2018-07-27T08:31:39.988Z,77.60
2018-07-27T08:34:08.654Z,78.30
2018-07-27T08:36:37.286Z,76.40
2018-07-27T08:39:09.213Z,74.90
2018-07-27T08:41:38.495Z,78.00
2018-07-27T08:44:07.653Z,72.70
2018-07-27T08:46:36.631Z,73.60
2018-07-27T08:49:05.237Z,74.10
2018-07-27T08:51:33.996Z,73.60
2018-07-27T08:54:02.822Z,71.70
2018-07-27T08:56:31.797Z,70.90
2018-07-27T08:59:00.430Z,72.90
2018-07-27T09:01:29.062Z,69.00
2018-07-27T09:03:57.777Z,69.80
2018-07-27T09:06:26.419Z,71.20
2018-07-27T09:08:55.188Z,70.00
2018-07-27T09:11:24.151Z,70.60
2018-07-27T09:13:53.452Z,68.80
2018-07-27T09:16:22.556Z,71.30
2018-07-27T09:18:51.720Z,67.40
2018-07-27T09:21:20.350Z,67.10
2018-07-27T09:23:48.978Z,69.00
2018-07-27T09:26:17.590Z,70.30
2018-07-27T09:28:46.225Z,66.30
2018-07-27T09:31:14.874Z,67.50
2018-07-27T09:33:43.491Z,75.00
2018-07-27T09:36:12.097Z,72.00
2018-07-27T09:38:40.790Z,69.10
2018-07-27T09:41:09.425Z,67.40
2018-07-27T09:43:38.067Z,66.90
2018-07-27T09:46:07.289Z,67.50
2018-07-27T09:48:35.902Z,67.40
2018-07-27T09:51:04.553Z,61.00
2018-07-27T09:53:33.269Z,66.40
2018-07-27T09:56:01.961Z,66.90
2018-07-27T09:58:30.581Z,67.80
2018-07-27T10:01:04.433Z,70.00
2018-07-27T10:03:33.066Z,66.60
2018-07-27T10:06:01.678Z,67.20
2018-07-27T10:08:30.256Z,65.00
2018-07-27T10:10:58.921Z,62.70
2018-07-27T10:13:27.626Z,64.40
2018-07-27T10:15:56.283Z,65.20
2018-07-27T10:18:24.974Z,64.70
2018-07-27T10:20:53.693Z,66.10
2018-07-27T10:23:22.348Z,63.20
2018-07-27T10:25:50.963Z,63.20
2018-07-27T10:28:19.574Z,62.50
2018-07-27T10:30:48.274Z,60.90
2018-07-27T10:33:16.859Z,61.70
2018-07-27T10:35:45.433Z,59.40
2018-07-27T10:38:14.085Z,61.70
2018-07-27T10:40:42.730Z,62.40
2018-07-27T10:43:11.428Z,57.50
2018-07-27T10:45:40.211Z,61.10
2018-07-27T10:48:08.839Z,57.60
2018-07-27T10:50:37.449Z,59.90
2018-07-27T10:53:06.091Z,60.10
2018-07-27T10:55:34.712Z,59.50
2018-07-27T10:58:03.337Z,58.80
2018-07-27T11:00:31.937Z,58.30
2018-07-27T11:03:00.579Z,55.60
2018-07-27T11:05:29.305Z,56.80
2018-07-27T11:07:57.957Z,57.40
2018-07-27T11:10:26.577Z,56.40
2018-07-27T11:12:55.241Z,57.60
2018-07-27T11:15:23.960Z,58.10
2018-07-27T11:17:52.676Z,56.80
2018-07-27T11:20:21.440Z,59.90
2018-07-27T11:22:50.050Z,57.10
2018-07-27T11:25:18.699Z,58.10
2018-07-27T11:27:47.313Z,57.20
2018-07-27T11:30:15.921Z,59.00
2018-07-27T11:32:44.531Z,57.30
2018-07-27T11:35:13.233Z,58.70
2018-07-27T11:37:41.937Z,58.30
2018-07-27T11:40:11.429Z,58.20
2018-07-27T11:42:40.159Z,58.90
2018-07-27T11:45:08.815Z,59.70
2018-07-27T11:47:37.435Z,57.80
2018-07-27T11:50:06.116Z,56.80
2018-07-27T11:52:34.701Z,55.70
2018-07-27T11:55:03.319Z,55.60
2018-07-27T11:57:31.940Z,53.40
2018-07-27T12:00:01.441Z,53.10
2018-07-27T12:02:30.049Z,53.40
2018-07-27T12:04:58.725Z,54.40
2018-07-27T12:07:27.457Z,54.10
2018-07-27T12:09:56.166Z,55.60
2018-07-27T12:12:24.902Z,55.10
2018-07-27T12:14:53.770Z,49.60
2018-07-27T12:17:22.293Z,53.20
2018-07-27T12:19:50.956Z,54.60
2018-07-27T12:22:19.572Z,50.90
2018-07-27T12:24:48.182Z,51.80
2018-07-27T12:27:16.794Z,51.70
2018-07-27T12:29:45.404Z,53.10
2018-07-27T12:32:14.164Z,54.60
2018-07-27T12:34:42.783Z,50.50
2018-07-27T12:37:11.385Z,53.10
2018-07-27T12:39:40.025Z,51.00
2018-07-27T12:42:08.778Z,48.30
2018-07-27T12:44:37.416Z,51.30
2018-07-27T12:47:06.321Z,48.60
2018-07-27T12:49:34.990Z,52.70
2018-07-27T12:52:03.694Z,53.30
2018-07-27T12:54:32.296Z,50.80
2018-07-27T12:57:00.917Z,51.00
2018-07-27T12:59:29.518Z,51.70
2018-07-27T13:01:58.109Z,50.50
2018-07-27T13:04:26.706Z,51.30
2018-07-27T13:06:55.309Z,49.00
2018-07-27T13:09:23.897Z,50.70
2018-07-27T13:11:52.473Z,49.90
2018-07-27T13:14:21.149Z,48.00
2018-07-27T13:16:49.761Z,50.60
2018-07-27T13:19:18.353Z,49.80
2018-07-27T13:21:46.957Z,48.80
2018-07-27T13:24:15.525Z,49.00
2018-07-27T13:26:44.133Z,48.40
2018-07-27T13:29:12.739Z,46.80
2018-07-27T13:34:49.967Z,44.50
2018-07-27T13:37:19.411Z,46.70
2018-07-27T13:39:49.085Z,46.30
2018-07-27T13:42:19.137Z,47.30
2018-07-27T13:44:47.844Z,47.30
2018-07-27T13:47:17.056Z,47.20
2018-07-27T13:49:45.625Z,48.80
2018-07-27T13:52:14.234Z,49.70
2018-07-27T13:54:42.845Z,46.10
2018-07-27T13:57:11.443Z,48.00
2018-07-27T13:59:40.141Z,49.80
2018-07-27T14:02:08.994Z,44.60
2018-07-27T14:04:37.668Z,46.40
2018-07-27T14:07:07.162Z,44.30
2018-07-27T14:09:35.829Z,45.50
2018-07-27T14:12:04.676Z,45.40
2018-07-27T14:14:33.377Z,50.10
2018-07-27T14:17:01.997Z,48.00
2018-07-27T14:19:30.925Z,46.40
2018-07-27T14:21:59.557Z,45.60
2018-07-27T14:24:28.159Z,44.90
2018-07-27T14:26:56.745Z,43.90
2018-07-27T14:29:25.437Z,45.30
2018-07-27T14:31:54.037Z,46.80
2018-07-27T14:34:22.704Z,48.90
2018-07-27T14:36:51.385Z,44.30
2018-07-27T14:39:20.025Z,43.00
2018-07-27T14:41:48.670Z,42.70
2018-07-27T14:44:17.270Z,45.40
2018-07-27T14:46:45.886Z,45.40
2018-07-27T14:49:15.749Z,41.00
2018-07-27T14:51:44.541Z,42.60
2018-07-27T14:54:14.140Z,41.10
2018-07-27T14:56:43.193Z,42.40
2018-07-27T14:59:12.149Z,43.80
2018-07-27T15:01:41.248Z,41.30
2018-07-27T15:04:10.591Z,45.10
2018-07-27T15:06:39.440Z,46.90
2018-07-27T15:09:11.983Z,46.00
2018-07-27T15:11:40.623Z,46.20
2018-07-27T15:14:09.366Z,47.20
2018-07-27T15:16:38.178Z,43.30
2018-07-27T15:19:06.860Z,46.10
2018-07-27T15:21:35.597Z,43.90
2018-07-27T15:24:04.609Z,45.70
2018-07-27T15:26:33.247Z,45.60
2018-07-27T15:29:01.929Z,44.60
2018-07-27T15:31:30.506Z,42.90
2018-07-27T15:33:59.127Z,45.20
2018-07-27T15:36:27.773Z,46.00
2018-07-27T15:38:56.426Z,45.60
2018-07-27T15:41:25.046Z,46.20
2018-07-27T15:43:53.653Z,48.60
2018-07-27T15:46:22.269Z,47.20
2018-07-27T15:48:50.950Z,46.40
2018-07-27T15:51:19.617Z,46.30
2018-07-27T15:53:48.290Z,46.00
2018-07-27T15:56:16.969Z,47.00
2018-07-27T15:58:45.581Z,46.80
2018-07-27T16:01:14.173Z,46.00
2018-07-27T16:03:48.388Z,46.40
2018-07-27T16:06:17.089Z,45.70
2018-07-27T16:08:45.660Z,46.20
2018-07-27T16:11:14.258Z,47.30
2018-07-27T16:13:42.845Z,47.60
2018-07-27T16:16:11.448Z,49.10
2018-07-27T16:18:40.046Z,48.20
2018-07-27T16:21:08.680Z,75.40
2018-07-27T16:23:37.345Z,66.60
2018-07-27T16:26:06.102Z,59.20
2018-07-27T16:28:34.771Z,59.60
2018-07-27T16:31:03.639Z,58.00
2018-07-27T16:33:32.263Z,66.00
2018-07-27T16:36:00.886Z,62.10
2018-07-27T16:40:57.892Z,59.40
2018-07-27T16:43:26.500Z,58.30
2018-07-27T16:45:55.151Z,58.80
2018-07-27T16:48:23.777Z,60.70
2018-07-27T16:50:52.806Z,57.60
2018-07-27T16:53:21.469Z,58.30
2018-07-27T16:55:50.125Z,57.70
2018-07-27T16:58:18.744Z,57.80
2018-07-27T17:00:47.344Z,56.80
2018-07-27T17:03:15.965Z,56.70
2018-07-27T17:05:44.540Z,59.30
2018-07-27T17:08:13.148Z,58.00
2018-07-27T17:10:41.729Z,61.80
2018-07-27T17:13:10.353Z,57.60
2018-07-27T17:15:38.989Z,57.50
2018-07-27T17:18:07.658Z,56.20
2018-07-27T17:20:36.321Z,60.50
2018-07-27T17:23:05.078Z,59.10
2018-07-27T17:25:33.836Z,59.80
2018-07-27T17:28:02.429Z,60.60
2018-07-27T17:30:31.047Z,62.70
2018-07-27T17:32:59.631Z,56.70
2018-07-27T17:35:28.252Z,63.50
2018-07-27T17:37:56.841Z,60.90
2018-07-27T17:40:25.494Z,59.00
2018-07-27T17:42:55.281Z,60.80
2018-07-27T17:45:23.931Z,64.10
2018-07-27T17:47:52.553Z,59.50
2018-07-27T17:50:21.247Z,61.10
2018-07-27T17:52:49.928Z,62.90
2018-07-27T17:55:18.537Z,60.10
2018-07-27T17:57:47.158Z,58.10
2018-07-27T18:00:15.785Z,64.10
2018-07-27T18:02:44.435Z,71.50
2018-07-27T18:05:13.096Z,73.30
2018-07-27T18:07:41.772Z,71.80
2018-07-27T18:10:10.354Z,64.20
2018-07-27T18:12:39.004Z,62.00
2018-07-27T18:15:07.750Z,71.90
2018-07-27T18:17:36.527Z,77.90
2018-07-27T18:20:07.420Z,79.70
2018-07-27T18:22:36.124Z,85.30
2018-07-27T18:25:06.726Z,85.40
2018-07-27T18:27:35.407Z,86.30
2018-07-27T18:30:04.936Z,84.30
2018-07-27T18:32:33.614Z,90.70
2018-07-27T18:35:02.322Z,94.50
2018-07-27T18:37:30.939Z,92.70
2018-07-27T18:39:59.551Z,88.50
2018-07-27T18:42:28.178Z,86.80
2018-07-27T18:44:56.813Z,85.20
2018-07-27T18:47:25.430Z,90.20
2018-07-27T18:49:54.220Z,91.30
2018-07-27T18:52:22.985Z,91.00
2018-07-27T18:54:51.692Z,91.20
2018-07-27T18:57:20.296Z,89.20
2018-07-27T18:59:48.952Z,92.00
2018-07-27T19:02:17.554Z,93.10
2018-07-27T19:04:46.175Z,93.30
2018-07-27T19:07:14.866Z,92.30
2018-07-27T19:09:43.418Z,91.30
2018-07-27T19:12:12.529Z,91.10
2018-07-27T19:14:41.115Z,91.70
2018-07-27T19:17:09.771Z,88.50
2018-07-27T19:19:38.477Z,87.30
2018-07-27T19:22:07.285Z,87.50
2018-07-27T19:24:36.153Z,85.30
2018-07-27T19:27:05.330Z,87.20
2018-07-27T19:32:02.548Z,78.60
2018-07-27T19:34:31.295Z,80.80
2018-07-27T19:36:59.953Z,79.80
2018-07-27T19:39:28.530Z,82.90
2018-07-27T19:41:57.150Z,84.10
2018-07-27T19:44:25.729Z,76.00
2018-07-27T19:46:54.381Z,80.10
2018-07-27T19:49:23.025Z,80.30
2018-07-27T19:51:51.710Z,82.60
2018-07-27T19:54:20.425Z,78.50
2018-07-27T19:56:49.057Z,79.30
2018-07-27T19:59:17.689Z,74.40
2018-07-27T20:01:46.347Z,74.70
2018-07-27T20:04:14.949Z,77.90
2018-07-27T20:06:43.658Z,76.40
2018-07-27T20:09:12.449Z,73.00
2018-07-27T20:11:41.435Z,73.20
2018-07-27T20:14:10.534Z,73.50
2018-07-27T20:16:39.544Z,73.80
2018-07-27T20:19:08.326Z,75.40
2018-07-27T20:21:37.102Z,72.60
2018-07-27T20:24:06.024Z,72.30
2018-07-27T20:26:34.970Z,73.10
2018-07-27T20:29:03.675Z,71.90
2018-07-27T20:31:32.361Z,74.50
2018-07-27T20:34:01.019Z,71.80
2018-07-27T20:36:29.679Z,71.70
2018-07-27T20:38:58.293Z,71.90
2018-07-27T20:41:26.993Z,70.70
2018-07-27T20:43:55.714Z,70.50
2018-07-27T20:46:24.281Z,71.20
2018-07-27T20:48:52.957Z,70.80
2018-07-27T20:51:21.643Z,72.10
2018-07-27T20:53:50.342Z,72.50
2018-07-27T20:56:19.025Z,72.00
2018-07-27T20:58:47.645Z,74.10
2018-07-27T21:01:16.282Z,72.30
2018-07-27T21:03:44.893Z,71.30
2018-07-27T21:06:13.527Z,71.60
2018-07-27T21:08:42.133Z,71.00
2018-07-27T21:11:10.764Z,70.20
2018-07-27T21:13:39.367Z,70.60
2018-07-27T21:16:08.150Z,69.60
2018-07-27T21:18:36.891Z,72.10
2018-07-27T21:21:05.673Z,69.50
2018-07-27T21:23:34.441Z,69.40
2018-07-27T21:26:03.135Z,70.00
2018-07-27T21:28:31.817Z,69.40
2018-07-27T21:31:00.468Z,68.70
2018-07-27T21:35:57.315Z,69.80
2018-07-27T21:38:25.957Z,69.50
2018-07-27T21:40:54.580Z,70.00
2018-07-27T21:43:23.237Z,70.30
2018-07-27T21:45:52.009Z,70.00
2018-07-27T21:48:20.670Z,70.20
2018-07-27T21:50:49.345Z,72.50
2018-07-27T21:53:17.996Z,70.50
2018-07-27T21:55:46.634Z,71.90
2018-07-27T21:58:15.294Z,71.70
2018-07-27T22:00:43.934Z,71.70
2018-07-27T22:03:12.585Z,72.00
2018-07-27T22:05:41.198Z,72.70
2018-07-27T22:08:09.842Z,72.60
2018-07-27T22:10:38.579Z,75.10
2018-07-27T22:13:07.416Z,73.50
2018-07-27T22:15:36.111Z,72.90
2018-07-27T22:18:04.901Z,73.90
2018-07-27T22:20:33.767Z,73.90
2018-07-27T22:23:02.433Z,73.60
2018-07-27T22:25:31.095Z,75.70
2018-07-27T22:27:59.758Z,74.40
2018-07-27T22:30:28.389Z,74.50
2018-07-27T22:32:57.048Z,75.70
2018-07-27T22:35:25.718Z,74.70
2018-07-27T22:37:54.341Z,75.30
2018-07-27T22:40:22.983Z,76.20
2018-07-27T22:42:52.809Z,78.00
2018-07-27T22:45:21.506Z,76.50
2018-07-27T22:47:50.192Z,77.50
2018-07-27T22:50:18.849Z,77.20
2018-07-27T22:52:47.464Z,78.40
2018-07-27T22:55:16.086Z,76.60
2018-07-27T22:57:44.765Z,77.20
2018-07-27T23:00:14.697Z,78.10
2018-07-27T23:02:43.817Z,77.80
2018-07-27T23:05:13.218Z,77.50
2018-07-27T23:07:41.940Z,77.60
2018-07-27T23:10:11.229Z,79.20
2018-07-27T23:12:40.458Z,77.60
2018-07-27T23:15:10.833Z,80.40
2018-07-27T23:17:39.601Z,78.90
2018-07-27T23:20:11.809Z,79.20
2018-07-27T23:22:40.670Z,79.70
2018-07-27T23:25:09.417Z,79.50
2018-07-27T23:27:38.190Z,79.30
2018-07-27T23:30:09.234Z,79.70
2018-07-27T23:32:37.966Z,79.00
2018-07-27T23:35:06.812Z,79.10
2018-07-27T23:37:35.714Z,79.40
2018-07-27T23:40:04.894Z,80.50
2018-07-27T23:42:33.851Z,80.30
2018-07-27T23:45:02.629Z,80.00
2018-07-27T23:47:31.273Z,79.70
2018-07-27T23:49:59.878Z,82.00
2018-07-27T23:52:28.619Z,80.40
2018-07-27T23:54:57.275Z,81.90
2018-07-27T23:57:25.937Z,80.10
2018-07-27T23:59:54.533Z,80.80
